createdAt,value
2023-04-18T00:00:37.215Z,81.03
2023-04-18T00:03:04.804Z,80.73
2023-04-18T00:05:32.269Z,81.23
2023-04-18T00:07:59.196Z,81.42
2023-04-18T00:10:26.122Z,81.99
2023-04-18T00:12:52.991Z,81.75
2023-04-18T00:15:19.754Z,81.57
2023-04-18T00:17:48.448Z,81.51
2023-04-18T00:20:15.770Z,82.63
2023-04-18T00:22:43.286Z,81.21
2023-04-18T00:25:11.659Z,81.73
2023-04-18T00:27:39.054Z,82.19
2023-04-18T00:30:07.139Z,82.11
2023-04-18T00:32:36.646Z,81.89
2023-04-18T00:35:04.709Z,81.46
2023-04-18T00:37:32.008Z,81.93
2023-04-18T00:39:58.918Z,82.32
2023-04-18T00:42:28.105Z,82.29
2023-04-18T00:44:55.319Z,82.35
2023-04-18T00:47:22.286Z,83.01
2023-04-18T00:49:49.470Z,83.52
2023-04-18T00:52:16.994Z,84.44
2023-04-18T00:54:45.003Z,84.66
2023-04-18T00:57:12.731Z,84.70
2023-04-18T00:59:39.713Z,84.45
2023-04-18T01:02:06.648Z,83.97
2023-04-18T01:04:33.892Z,83.90
2023-04-18T01:07:01.335Z,84.25
2023-04-18T01:09:28.391Z,84.19
2023-04-18T01:11:55.390Z,85.10
2023-04-18T01:14:22.524Z,85.70
2023-04-18T01:16:49.410Z,86.91
2023-04-18T01:19:17.922Z,85.10
2023-04-18T01:21:44.842Z,85.18
2023-04-18T01:24:15.348Z,85.43
2023-04-18T01:26:45.797Z,85.84
2023-04-18T01:29:12.692Z,85.55
2023-04-18T01:31:40.790Z,84.85
2023-04-18T01:34:08.187Z,84.77
2023-04-18T01:36:36.840Z,86.27
2023-04-18T01:39:03.878Z,86.43
2023-04-18T01:41:33.149Z,85.80
2023-04-18T01:44:00.438Z,86.03
2023-04-18T01:46:27.501Z,85.32
2023-04-18T01:48:54.561Z,84.25
2023-04-18T01:51:22.502Z,83.98
2023-04-18T01:53:49.650Z,83.88
2023-04-18T01:56:16.528Z,83.81
2023-04-18T01:58:43.322Z,84.33
2023-04-18T02:01:10.362Z,84.28
2023-04-18T02:03:37.582Z,84.37
2023-04-18T02:06:05.321Z,84.67
2023-04-18T02:08:35.850Z,84.99
2023-04-18T02:11:03.107Z,85.09
2023-04-18T02:13:32.237Z,85.50
2023-04-18T02:15:59.087Z,84.82
2023-04-18T02:18:29.826Z,85.21
2023-04-18T02:20:56.865Z,85.93
2023-04-18T02:23:23.645Z,85.00
2023-04-18T02:25:51.083Z,84.40
2023-04-18T02:28:18.215Z,83.72
2023-04-18T02:30:45.163Z,84.00
2023-04-18T02:33:11.943Z,84.23
2023-04-18T02:35:38.997Z,84.62
2023-04-18T02:38:06.266Z,84.15
2023-04-18T02:40:33.047Z,84.16
2023-04-18T02:42:59.869Z,84.32
2023-04-18T02:45:26.736Z,84.91
2023-04-18T02:47:56.197Z,85.54
2023-04-18T02:50:24.019Z,84.42
2023-04-18T02:52:51.325Z,85.01
2023-04-18T02:55:18.483Z,85.66
2023-04-18T02:57:45.421Z,85.20
2023-04-18T03:00:13.808Z,85.30
2023-04-18T03:02:41.085Z,85.62
2023-04-18T03:05:08.421Z,84.94
2023-04-18T03:07:35.516Z,84.44
2023-04-18T03:10:02.456Z,84.10
2023-04-18T03:12:29.260Z,84.32
2023-04-18T03:14:56.427Z,85.45
2023-04-18T03:17:23.370Z,85.72
2023-04-18T03:19:50.277Z,85.99
2023-04-18T03:22:17.322Z,84.82
2023-04-18T03:24:44.237Z,83.67
2023-04-18T03:27:11.889Z,83.64
2023-04-18T03:29:39.164Z,84.03
2023-04-18T03:32:06.317Z,84.10
2023-04-18T03:34:33.252Z,84.41
2023-04-18T03:37:00.166Z,84.52
2023-04-18T03:39:26.973Z,84.98
2023-04-18T03:41:53.991Z,85.28
2023-04-18T03:44:23.222Z,84.95
2023-04-18T03:46:50.487Z,84.54
2023-04-18T03:49:17.330Z,83.96
2023-04-18T03:51:47.594Z,84.11
2023-04-18T03:54:15.806Z,84.43
2023-04-18T03:56:43.123Z,84.32
2023-04-18T03:59:10.094Z,83.88
2023-04-18T04:01:37.034Z,84.83
2023-04-18T04:04:04.768Z,84.60
2023-04-18T04:06:32.439Z,83.48
2023-04-18T04:08:59.319Z,83.39
2023-04-18T04:11:26.385Z,83.12
2023-04-18T04:13:53.644Z,83.11
2023-04-18T04:16:20.571Z,83.16
2023-04-18T04:18:47.722Z,82.66
2023-04-18T04:21:14.783Z,82.76
2023-04-18T04:23:43.138Z,82.69
2023-04-18T04:26:10.250Z,83.20
2023-04-18T04:28:37.230Z,83.67
2023-04-18T04:31:08.451Z,81.98
2023-04-18T04:33:36.167Z,81.65
2023-04-18T04:36:03.095Z,81.69
2023-04-18T04:38:31.350Z,82.11
2023-04-18T04:40:58.696Z,82.82
2023-04-18T04:43:25.794Z,83.09
2023-04-18T04:45:53.354Z,82.35
2023-04-18T04:48:22.343Z,82.69
2023-04-18T04:50:52.668Z,83.18
2023-04-18T04:53:19.608Z,83.25
2023-04-18T04:55:46.542Z,82.86
2023-04-18T04:58:13.407Z,82.75
2023-04-18T05:00:40.271Z,83.32
2023-04-18T05:03:08.618Z,82.95
2023-04-18T05:05:36.210Z,83.19
2023-04-18T05:08:03.268Z,82.49
2023-04-18T05:10:30.766Z,83.52
2023-04-18T05:12:57.714Z,82.92
2023-04-18T05:15:25.229Z,83.06
2023-04-18T05:17:52.148Z,83.61
2023-04-18T05:20:19.082Z,83.06
2023-04-18T05:22:46.103Z,82.99
2023-04-18T05:25:13.061Z,83.50
2023-04-18T05:27:40.102Z,83.43
2023-04-18T05:30:07.474Z,83.90
2023-04-18T05:32:34.875Z,83.95
2023-04-18T05:35:01.787Z,83.85
2023-04-18T05:37:28.691Z,82.97
2023-04-18T05:39:55.722Z,82.78
2023-04-18T05:42:22.660Z,83.17
2023-04-18T05:44:49.490Z,83.60
2023-04-18T05:47:16.793Z,83.97
2023-04-18T05:49:44.142Z,84.26
2023-04-18T05:52:11.824Z,83.02
2023-04-18T05:54:38.696Z,83.35
2023-04-18T05:57:06.133Z,82.59
2023-04-18T05:59:33.166Z,82.53
2023-04-18T06:02:00.167Z,82.54
2023-04-18T06:04:27.469Z,82.31
2023-04-18T06:06:54.876Z,81.94
2023-04-18T06:09:21.761Z,82.93
2023-04-18T06:11:48.718Z,82.93
2023-04-18T06:14:17.977Z,82.66
2023-04-18T06:16:44.924Z,82.75
2023-04-18T06:19:11.897Z,81.74
2023-04-18T06:21:40.070Z,81.14
2023-04-18T06:24:07.361Z,81.81
2023-04-18T06:26:34.342Z,81.88
2023-04-18T06:29:01.500Z,80.95
2023-04-18T06:31:28.827Z,81.14
2023-04-18T06:33:56.273Z,80.97
2023-04-18T06:36:23.282Z,81.30
2023-04-18T06:38:50.388Z,80.97
2023-04-18T06:41:17.584Z,81.22
2023-04-18T06:43:59.578Z,80.97
2023-04-18T06:46:29.686Z,80.79
2023-04-18T06:48:56.942Z,80.92
2023-04-18T06:51:27.731Z,79.81
2023-04-18T06:53:54.764Z,79.07
2023-04-18T06:56:25.043Z,80.39
2023-04-18T06:58:53.399Z,76.00
2023-04-18T07:01:20.844Z,75.47
2023-04-18T07:03:48.515Z,75.07
2023-04-18T07:06:16.329Z,72.21
2023-04-18T07:08:43.935Z,71.82
2023-04-18T07:11:13.794Z,70.94
2023-04-18T07:13:41.108Z,69.63
2023-04-18T07:16:09.776Z,67.13
2023-04-18T07:18:38.584Z,67.35
2023-04-18T07:21:08.034Z,68.33
2023-04-18T07:23:35.804Z,66.31
2023-04-18T07:26:03.833Z,67.28
2023-04-18T07:28:31.856Z,67.84
2023-04-18T07:30:59.798Z,69.66
2023-04-18T07:33:27.358Z,68.44
2023-04-18T07:35:54.877Z,68.19
2023-04-18T07:38:22.958Z,68.12
2023-04-18T07:40:57.102Z,67.04
2023-04-18T07:43:30.118Z,65.89
2023-04-18T07:45:58.734Z,65.35
2023-04-18T07:48:26.339Z,62.70
2023-04-18T07:50:54.476Z,60.42
2023-04-18T07:53:22.087Z,58.73
2023-04-18T07:55:49.715Z,55.35
2023-04-18T07:58:17.048Z,53.52
2023-04-18T08:00:45.360Z,53.01
2023-04-18T08:03:13.726Z,54.41
2023-04-18T08:05:41.771Z,54.48
2023-04-18T08:08:13.534Z,54.38
2023-04-18T08:10:41.108Z,53.82
2023-04-18T08:13:08.641Z,53.32
2023-04-18T08:15:36.157Z,53.26
2023-04-18T08:18:03.840Z,55.74
2023-04-18T08:20:31.429Z,56.89
2023-04-18T08:23:06.927Z,58.07
2023-04-18T08:25:36.911Z,58.72
2023-04-18T08:28:04.510Z,59.43
2023-04-18T08:30:32.144Z,61.75
2023-04-18T08:33:00.920Z,61.88
2023-04-18T08:35:28.664Z,62.08
2023-04-18T08:37:59.438Z,61.49
2023-04-18T08:40:26.729Z,61.28
2023-04-18T08:42:54.977Z,61.13
2023-04-18T08:45:22.170Z,61.82
2023-04-18T08:47:49.470Z,61.72
2023-04-18T08:50:17.793Z,62.40
2023-04-18T08:52:50.185Z,62.01
2023-04-18T08:55:17.246Z,61.49
2023-04-18T08:57:45.255Z,61.89
2023-04-18T09:00:12.810Z,61.69
2023-04-18T09:02:43.280Z,62.15
2023-04-18T09:05:12.032Z,62.26
2023-04-18T09:07:39.362Z,62.53
2023-04-18T09:10:07.296Z,61.96
2023-04-18T09:12:37.038Z,60.44
2023-04-18T09:15:07.428Z,60.36
2023-04-18T09:17:52.877Z,59.64
2023-04-18T09:20:24.231Z,59.34
2023-04-18T09:22:52.780Z,59.25
2023-04-18T09:25:24.467Z,60.23
2023-04-18T09:27:54.687Z,60.77
2023-04-18T09:30:25.094Z,60.78
2023-04-18T09:32:58.939Z,61.05
2023-04-18T09:35:26.957Z,61.73
2023-04-18T09:37:54.004Z,61.23
2023-04-18T09:40:21.964Z,60.83
2023-04-18T09:42:49.526Z,61.35
2023-04-18T09:45:16.824Z,61.60
2023-04-18T09:47:46.182Z,61.87
2023-04-18T09:50:13.442Z,62.05
2023-04-18T09:52:41.936Z,61.26
2023-04-18T09:55:10.815Z,60.84
2023-04-18T09:58:02.325Z,60.66
2023-04-18T10:00:30.636Z,61.14
2023-04-18T10:02:59.924Z,61.20
2023-04-18T10:05:31.888Z,60.73
2023-04-18T10:08:06.639Z,61.30
2023-04-18T10:10:33.873Z,62.16
2023-04-18T10:13:02.395Z,62.70
2023-04-18T10:15:31.550Z,62.38
2023-04-18T10:18:05.372Z,63.22
2023-04-18T10:20:34.327Z,62.74
2023-04-18T10:23:23.602Z,61.57
2023-04-18T10:25:51.975Z,62.33
2023-04-18T10:28:21.396Z,61.36
2023-04-18T10:30:50.488Z,61.86
2023-04-18T10:33:30.512Z,62.02
2023-04-18T10:35:59.309Z,61.26
2023-04-18T10:38:29.187Z,61.47
2023-04-18T10:40:59.444Z,61.29
2023-04-18T10:43:26.591Z,61.26
2023-04-18T10:45:56.957Z,61.25
2023-04-18T10:48:26.328Z,61.19
2023-04-18T10:50:56.738Z,60.82
2023-04-18T10:53:25.268Z,61.15
2023-04-18T10:55:55.588Z,61.12
2023-04-18T10:58:23.357Z,60.89
2023-04-18T11:00:52.402Z,60.55
2023-04-18T11:03:19.998Z,60.57
2023-04-18T11:05:47.275Z,60.74
2023-04-18T11:08:18.008Z,59.54
2023-04-18T11:10:57.299Z,59.91
2023-04-18T11:13:25.348Z,59.70
2023-04-18T11:15:52.719Z,60.38
2023-04-18T11:18:20.124Z,60.84
2023-04-18T11:20:50.239Z,61.31
2023-04-18T11:23:20.813Z,61.67
2023-04-18T11:25:50.072Z,62.11
2023-04-18T11:28:19.848Z,62.28
2023-04-18T11:30:47.854Z,61.98
2023-04-18T11:33:15.853Z,62.28
2023-04-18T11:35:43.694Z,62.35
2023-04-18T11:38:12.354Z,63.21
2023-04-18T11:40:39.747Z,63.46
2023-04-18T11:43:07.630Z,63.23
2023-04-18T11:45:34.876Z,63.11
2023-04-18T11:48:02.420Z,62.15
2023-04-18T11:50:40.485Z,62.35
2023-04-18T11:53:13.026Z,62.58
2023-04-18T11:55:40.706Z,62.97
2023-04-18T11:58:08.309Z,62.93
2023-04-18T12:00:38.015Z,62.85
2023-04-18T12:03:06.687Z,63.03
2023-04-18T12:05:36.005Z,62.36
2023-04-18T12:08:06.722Z,61.44
2023-04-18T12:10:34.236Z,61.25
2023-04-18T12:13:01.533Z,60.87
2023-04-18T12:15:29.803Z,60.54
2023-04-18T12:18:19.069Z,60.96
2023-04-18T12:20:50.680Z,60.89
2023-04-18T12:23:21.275Z,61.17
2023-04-18T12:25:58.716Z,61.04
2023-04-18T12:28:26.880Z,60.28
2023-04-18T12:30:54.325Z,60.86
2023-04-18T12:33:21.329Z,61.24
2023-04-18T12:35:49.757Z,61.76
2023-04-18T12:38:20.073Z,62.72
2023-04-18T12:40:47.425Z,63.60
2023-04-18T12:43:14.643Z,63.58
2023-04-18T12:45:42.915Z,64.06
2023-04-18T12:48:10.320Z,64.08
2023-04-18T12:50:37.686Z,64.21
2023-04-18T12:53:05.529Z,65.14
2023-04-18T12:55:32.935Z,65.51
2023-04-18T12:58:00.001Z,65.88
2023-04-18T13:00:28.619Z,66.35
2023-04-18T13:02:56.318Z,66.60
2023-04-18T13:05:25.751Z,66.54
2023-04-18T13:07:58.638Z,66.38
2023-04-18T13:10:32.562Z,65.94
2023-04-18T13:12:59.872Z,66.49
2023-04-18T13:15:27.834Z,66.80
2023-04-18T13:17:56.500Z,66.49
2023-04-18T13:20:23.766Z,66.34
2023-04-18T13:22:50.843Z,66.40
2023-04-18T13:25:17.917Z,66.19
2023-04-18T13:27:46.320Z,66.40
2023-04-18T13:30:13.790Z,66.62
2023-04-18T13:32:42.013Z,67.04
2023-04-18T13:35:11.197Z,67.18
2023-04-18T13:37:39.099Z,67.54
2023-04-18T13:40:07.094Z,67.36
2023-04-18T13:42:34.924Z,67.86
2023-04-18T13:45:02.037Z,68.21
2023-04-18T13:47:29.653Z,68.01
2023-04-18T13:49:58.226Z,67.87
2023-04-18T13:52:26.242Z,67.35
2023-04-18T13:54:53.337Z,67.95
2023-04-18T13:57:20.799Z,67.77
2023-04-18T13:59:47.895Z,67.61
2023-04-18T14:02:15.392Z,67.01
2023-04-18T14:04:42.808Z,66.89
2023-04-18T14:07:09.935Z,66.43
2023-04-18T14:09:37.012Z,66.49
2023-04-18T14:12:04.311Z,66.19
2023-04-18T14:14:31.563Z,65.53
2023-04-18T14:16:59.150Z,65.49
2023-04-18T14:19:27.200Z,66.49
2023-04-18T14:21:54.332Z,65.09
2023-04-18T14:24:21.669Z,64.90
2023-04-18T14:26:48.775Z,64.70
2023-04-18T14:29:16.156Z,64.51
2023-04-18T14:31:43.649Z,64.14
2023-04-18T14:34:10.834Z,64.09
2023-04-18T14:36:38.030Z,64.34
2023-04-18T14:39:05.824Z,64.91
2023-04-18T14:41:33.394Z,64.25
2023-04-18T14:44:00.739Z,63.90
2023-04-18T14:46:28.682Z,63.37
2023-04-18T14:48:55.835Z,63.38
2023-04-18T14:51:23.660Z,63.59
2023-04-18T14:53:50.902Z,63.75
2023-04-18T14:56:21.464Z,63.09
2023-04-18T14:58:48.725Z,62.39
2023-04-18T15:01:17.833Z,62.82
2023-04-18T15:03:45.698Z,62.49
2023-04-18T15:06:13.132Z,62.39
2023-04-18T15:08:40.655Z,62.74
2023-04-18T15:11:08.704Z,62.46
2023-04-18T15:13:36.073Z,62.46
2023-04-18T15:16:03.421Z,62.50
2023-04-18T15:18:32.028Z,61.55
2023-04-18T15:21:00.380Z,61.15
2023-04-18T15:23:28.131Z,60.72
2023-04-18T15:25:55.432Z,61.00
2023-04-18T15:28:22.706Z,61.25
2023-04-18T15:30:50.099Z,61.76
2023-04-18T15:33:19.402Z,61.80
2023-04-18T15:35:47.451Z,61.87
2023-04-18T15:38:14.496Z,62.18
2023-04-18T15:40:43.741Z,62.25
2023-04-18T15:43:10.986Z,62.36
2023-04-18T15:45:38.324Z,62.39
2023-04-18T15:48:06.067Z,62.30
2023-04-18T15:50:34.283Z,62.40
2023-04-18T15:53:02.043Z,63.12
2023-04-18T15:55:29.285Z,62.92
2023-04-18T15:57:56.749Z,63.59
2023-04-18T16:00:24.512Z,63.41
2023-04-18T16:02:51.856Z,63.72
2023-04-18T16:05:19.405Z,64.17
2023-04-18T16:07:46.685Z,63.67
2023-04-18T16:10:15.540Z,63.32
2023-04-18T16:12:42.929Z,63.47
2023-04-18T16:15:10.360Z,63.43
2023-04-18T16:17:38.053Z,63.82
2023-04-18T16:20:08.678Z,64.88
2023-04-18T16:22:36.300Z,64.39
2023-04-18T16:25:04.326Z,64.81
2023-04-18T16:27:31.546Z,65.26
2023-04-18T16:29:59.752Z,65.07
2023-04-18T16:32:27.104Z,64.15
2023-04-18T16:34:54.567Z,64.41
2023-04-18T16:37:22.975Z,64.24
2023-04-18T16:39:50.224Z,63.97
2023-04-18T16:42:17.478Z,64.46
2023-04-18T16:44:45.790Z,63.73
2023-04-18T16:47:13.106Z,63.13
2023-04-18T16:49:41.332Z,63.00
2023-04-18T16:52:08.532Z,62.72
2023-04-18T16:54:36.071Z,62.77
2023-04-18T16:57:03.827Z,62.66
2023-04-18T16:59:31.059Z,62.95
2023-04-18T17:01:59.898Z,63.77
2023-04-18T17:04:29.510Z,64.26
2023-04-18T17:06:57.081Z,64.37
2023-04-18T17:09:24.363Z,63.69
2023-04-18T17:11:51.577Z,63.57
2023-04-18T17:14:18.929Z,63.97
2023-04-18T17:16:46.244Z,64.54
2023-04-18T17:19:37.172Z,64.45
2023-04-18T17:22:04.362Z,64.29
2023-04-18T17:24:31.376Z,65.24
2023-04-18T17:26:58.829Z,64.21
2023-04-18T17:29:26.645Z,63.44
2023-04-18T17:31:56.979Z,62.66
2023-04-18T17:34:24.155Z,62.50
2023-04-18T17:36:51.369Z,62.84
2023-04-18T17:39:18.551Z,63.15
2023-04-18T17:41:46.289Z,63.50
2023-04-18T17:44:13.591Z,64.21
2023-04-18T17:46:40.742Z,64.02
2023-04-18T17:49:08.338Z,64.26
2023-04-18T17:51:35.593Z,63.88
2023-04-18T17:54:03.524Z,64.32
2023-04-18T17:56:31.933Z,64.76
2023-04-18T17:58:59.258Z,65.69
2023-04-18T18:01:26.825Z,65.52
2023-04-18T18:03:54.135Z,65.20
2023-04-18T18:06:21.994Z,65.07
2023-04-18T18:08:49.215Z,64.57
2023-04-18T18:11:16.681Z,64.79
2023-04-18T18:13:44.183Z,64.24
2023-04-18T18:16:11.356Z,64.79
2023-04-18T18:18:38.838Z,63.95
2023-04-18T18:21:05.982Z,64.39
2023-04-18T18:23:33.037Z,64.23
2023-04-18T18:26:01.148Z,64.16
2023-04-18T18:28:29.199Z,64.34
2023-04-18T18:30:56.360Z,64.11
2023-04-18T18:33:23.588Z,64.17
2023-04-18T18:35:50.997Z,64.88
2023-04-18T18:38:18.174Z,64.80
2023-04-18T18:40:45.349Z,65.28
2023-04-18T18:43:13.028Z,65.53
2023-04-18T18:45:40.082Z,65.96
2023-04-18T18:48:08.359Z,66.13
2023-04-18T18:50:35.523Z,66.29
2023-04-18T18:53:02.667Z,66.61
2023-04-18T18:55:30.103Z,67.24
2023-04-18T18:57:57.137Z,67.28
2023-04-18T19:00:24.385Z,67.82
2023-04-18T19:02:51.849Z,68.13
2023-04-18T19:05:19.316Z,68.20
2023-04-18T19:07:46.526Z,68.35
2023-04-18T19:10:13.729Z,68.96
2023-04-18T19:12:40.907Z,68.69
2023-04-18T19:15:08.660Z,69.11
2023-04-18T19:17:35.870Z,68.53
2023-04-18T19:20:03.803Z,69.01
2023-04-18T19:22:31.398Z,68.85
2023-04-18T19:25:00.787Z,68.85
2023-04-18T19:27:27.906Z,68.65
2023-04-18T19:29:56.487Z,69.13
2023-04-18T19:32:24.079Z,68.72
2023-04-18T19:34:52.038Z,69.06
2023-04-18T19:37:19.415Z,68.73
2023-04-18T19:39:46.909Z,69.01
2023-04-18T19:42:14.632Z,68.51
2023-04-18T19:44:42.143Z,68.92
2023-04-18T19:47:09.390Z,69.01
2023-04-18T19:49:40.681Z,68.75
2023-04-18T19:52:07.824Z,69.09
2023-04-18T19:54:35.058Z,69.37
2023-04-18T19:57:02.937Z,69.27
2023-04-18T19:59:30.164Z,70.05
2023-04-18T20:01:59.476Z,69.67
2023-04-18T20:04:28.294Z,69.44
2023-04-18T20:06:56.595Z,70.28
2023-04-18T20:09:23.797Z,69.94
2023-04-18T20:11:50.991Z,69.72
2023-04-18T20:14:18.437Z,69.54
2023-04-18T20:16:47.141Z,69.37
2023-04-18T20:19:14.877Z,69.41
2023-04-18T20:21:42.348Z,70.42
2023-04-18T20:24:10.181Z,69.35
2023-04-18T20:26:37.644Z,68.87
2023-04-18T20:29:04.885Z,68.99
2023-04-18T20:31:32.303Z,69.19
2023-04-18T20:33:59.489Z,68.67
2023-04-18T20:36:26.883Z,68.61
2023-04-18T20:38:54.183Z,68.87
2023-04-18T20:41:24.659Z,68.77
2023-04-18T20:43:54.509Z,68.91
2023-04-18T20:46:21.960Z,69.05
2023-04-18T20:48:49.358Z,69.25
2023-04-18T20:51:16.910Z,70.12
2023-04-18T20:53:44.167Z,70.21
2023-04-18T20:56:11.439Z,71.14
2023-04-18T20:58:38.506Z,71.62
2023-04-18T21:01:05.932Z,73.10
2023-04-18T21:03:33.461Z,73.08
2023-04-18T21:06:00.784Z,73.80
2023-04-18T21:08:27.876Z,74.68
2023-04-18T21:10:55.055Z,75.04
2023-04-18T21:13:22.096Z,75.58
2023-04-18T21:15:52.253Z,76.19
2023-04-18T21:18:19.859Z,76.36
2023-04-18T21:20:46.995Z,76.79
2023-04-18T21:23:14.066Z,77.78
2023-04-18T21:25:41.151Z,77.23
2023-04-18T21:28:08.534Z,77.15
2023-04-18T21:30:37.283Z,76.83
2023-04-18T21:33:04.598Z,76.88
2023-04-18T21:35:32.277Z,77.42
2023-04-18T21:37:59.548Z,77.43
2023-04-18T21:40:27.355Z,78.13
2023-04-18T21:42:54.533Z,77.87
2023-04-18T21:45:21.911Z,78.00
2023-04-18T21:47:49.015Z,77.90
2023-04-18T21:50:16.089Z,78.11
2023-04-18T21:52:43.288Z,78.31
2023-04-18T21:55:10.761Z,78.55
2023-04-18T21:57:38.086Z,78.80
2023-04-18T22:00:09.275Z,79.98
2023-04-18T22:02:37.617Z,79.41
2023-04-18T22:05:05.290Z,79.73
2023-04-18T22:07:33.340Z,79.39
2023-04-18T22:10:01.284Z,80.14
2023-04-18T22:12:28.414Z,80.03
2023-04-18T22:14:57.146Z,80.05
2023-04-18T22:17:24.338Z,79.65
2023-04-18T22:19:51.514Z,79.42
2023-04-18T22:22:18.579Z,79.58
2023-04-18T22:24:47.564Z,80.01
2023-04-18T22:27:14.991Z,80.23
2023-04-18T22:29:42.188Z,80.00
2023-04-18T22:32:09.364Z,80.07
2023-04-18T22:34:36.404Z,79.75
2023-04-18T22:37:03.560Z,80.06
2023-04-18T22:39:31.605Z,80.15
2023-04-18T22:41:58.698Z,80.26
2023-04-18T22:44:25.784Z,80.34
2023-04-18T22:46:55.062Z,80.81
2023-04-18T22:49:22.695Z,80.68
2023-04-18T22:51:50.075Z,81.41
2023-04-18T22:54:17.558Z,81.25
2023-04-18T22:56:44.672Z,81.43
2023-04-18T22:59:11.741Z,81.51
2023-04-18T23:01:38.869Z,81.17
2023-04-18T23:04:06.390Z,81.60
2023-04-18T23:06:33.995Z,81.91
2023-04-18T23:09:01.149Z,81.59
2023-04-18T23:11:28.372Z,82.54
2023-04-18T23:13:55.524Z,81.40
2023-04-18T23:16:23.408Z,81.10
2023-04-18T23:18:50.593Z,82.46
2023-04-18T23:21:17.882Z,81.33
2023-04-18T23:23:45.143Z,81.48
2023-04-18T23:26:15.283Z,81.96
2023-04-18T23:28:42.762Z,82.10
2023-04-18T23:31:10.117Z,82.67
2023-04-18T23:33:37.240Z,82.59
2023-04-18T23:36:04.487Z,83.21
2023-04-18T23:38:31.668Z,83.44
2023-04-18T23:40:59.052Z,83.27
2023-04-18T23:43:26.266Z,83.59
2023-04-18T23:45:53.290Z,83.46
2023-04-18T23:48:20.486Z,83.76
2023-04-18T23:50:48.240Z,83.86
2023-04-18T23:53:17.298Z,84.78
2023-04-18T23:55:44.409Z,84.33
2023-04-18T23:58:11.431Z,84.22
